Terminal Aerodrome Forecast
Issued by NWS

Home | Current Version | Previous Version | Text Only | Print | Product List | Glossary On
Versions: 1 2 3 4 5 6 7 8 9 10 11 12 13 14 15 16 17 18 19 20 21 22 23 24 25 26 27 28 29 30 31 32 33 34 35 36 37 38 39 40 41 42 43 44 45 46 47 48
000
FTUS42 KMFL 070227 AAB
TAFOPF
TAF AMD
KOPF 070227Z 0702/0724 30013G22KT P6SM -RA SCT007 BKN021 OVC050
      TEMPO 0702/0706 4SM RA BKN007
     FM070600 30013G25KT 5SM RA OVC010
     FM071100 30017G27KT P6SM SCT015 SCT120=

USA.gov is the U.S. government's official web portal to all federal, state and local government web resources and services.